sensor_id;sensor_type;location;lat;lon;timestamp;P1;durP1;ratioP1;P2;durP2;ratioP2
76208;SDS011;64990;51.698;-0.292;2023-06-22T00:00:27;7.50;;;3.42;;
76208;SDS011;64990;51.698;-0.292;2023-06-22T00:02:53;8.80;;;4.38;;
76208;SDS011;64990;51.698;-0.292;2023-06-22T00:05:19;10.43;;;4.18;;
76208;SDS011;64990;51.698;-0.292;2023-06-22T00:07:45;9.95;;;5.65;;
76208;SDS011;64990;51.698;-0.292;2023-06-22T00:10:11;12.60;;;5.43;;
76208;SDS011;64990;51.698;-0.292;2023-06-22T00:12:37;20.73;;;4.18;;
76208;SDS011;64990;51.698;-0.292;2023-06-22T00:15:03;9.10;;;4.07;;
76208;SDS011;64990;51.698;-0.292;2023-06-22T00:17:29;14.43;;;5.68;;
76208;SDS011;64990;51.698;-0.292;2023-06-22T00:19:55;17.20;;;4.72;;
76208;SDS011;64990;51.698;-0.292;2023-06-22T00:22:23;9.05;;;4.68;;
76208;SDS011;64990;51.698;-0.292;2023-06-22T00:24:55;9.25;;;5.38;;
76208;SDS011;64990;51.698;-0.292;2023-06-22T00:27:21;10.35;;;4.75;;
76208;SDS011;64990;51.698;-0.292;2023-06-22T00:29:47;13.48;;;4.38;;
76208;SDS011;64990;51.698;-0.292;2023-06-22T00:32:13;8.75;;;4.70;;
76208;SDS011;64990;51.698;-0.292;2023-06-22T00:34:39;7.07;;;3.95;;
76208;SDS011;64990;51.698;-0.292;2023-06-22T00:37:05;13.25;;;5.05;;
76208;SDS011;64990;51.698;-0.292;2023-06-22T00:39:31;12.57;;;5.20;;
76208;SDS011;64990;51.698;-0.292;2023-06-22T00:41:59;17.15;;;5.53;;
76208;SDS011;64990;51.698;-0.292;2023-06-22T00:44:25;9.88;;;6.10;;
76208;SDS011;64990;51.698;-0.292;2023-06-22T00:46:51;10.23;;;5.60;;
76208;SDS011;64990;51.698;-0.292;2023-06-22T00:49:17;17.95;;;5.03;;
76208;SDS011;64990;51.698;-0.292;2023-06-22T00:51:43;7.00;;;4.50;;
76208;SDS011;64990;51.698;-0.292;2023-06-22T00:54:11;6.55;;;4.40;;
76208;SDS011;64990;51.698;-0.292;2023-06-22T00:56:39;11.25;;;4.40;;
76208;SDS011;64990;51.698;-0.292;2023-06-22T00:59:05;7.57;;;5.53;;
76208;SDS011;64990;51.698;-0.292;2023-06-22T01:01:31;9.90;;;5.20;;
76208;SDS011;64990;51.698;-0.292;2023-06-22T01:03:59;9.52;;;4.07;;
76208;SDS011;64990;51.698;-0.292;2023-06-22T01:06:29;9.55;;;4.60;;
76208;SDS011;64990;51.698;-0.292;2023-06-22T01:09:22;9.73;;;4.50;;
76208;SDS011;64990;51.698;-0.292;2023-06-22T01:11:55;12.30;;;5.65;;
76208;SDS011;64990;51.698;-0.292;2023-06-22T01:14:40;7.30;;;4.43;;
76208;SDS011;64990;51.698;-0.292;2023-06-22T01:17:08;13.60;;;5.18;;
76208;SDS011;64990;51.698;-0.292;2023-06-22T01:22:00;9.15;;;5.10;;
76208;SDS011;64990;51.698;-0.292;2023-06-22T01:24:32;8.35;;;5.50;;
76208;SDS011;64990;51.698;-0.292;2023-06-22T01:27:13;12.60;;;5.00;;
76208;SDS011;64990;51.698;-0.292;2023-06-22T01:29:48;12.18;;;5.70;;
76208;SDS011;64990;51.698;-0.292;2023-06-22T01:32:14;11.43;;;5.55;;
76208;SDS011;64990;51.698;-0.292;2023-06-22T01:34:40;17.60;;;6.60;;
76208;SDS011;64990;51.698;-0.292;2023-06-22T01:37:06;16.27;;;5.30;;
76208;SDS011;64990;51.698;-0.292;2023-06-22T01:39:33;13.57;;;5.70;;
76208;SDS011;64990;51.698;-0.292;2023-06-22T01:41:59;8.82;;;4.90;;
76208;SDS011;64990;51.698;-0.292;2023-06-22T01:44:26;12.85;;;5.15;;
76208;SDS011;64990;51.698;-0.292;2023-06-22T01:46:52;13.50;;;6.63;;
76208;SDS011;64990;51.698;-0.292;2023-06-22T01:49:18;10.45;;;5.68;;
76208;SDS011;64990;51.698;-0.292;2023-06-22T01:51:44;15.07;;;5.63;;
76208;SDS011;64990;51.698;-0.292;2023-06-22T01:54:10;12.32;;;5.80;;
76208;SDS011;64990;51.698;-0.292;2023-06-22T01:56:36;11.63;;;4.63;;
76208;SDS011;64990;51.698;-0.292;2023-06-22T01:59:12;13.20;;;5.93;;
76208;SDS011;64990;51.698;-0.292;2023-06-22T02:01:44;10.30;;;5.85;;
76208;SDS011;64990;51.698;-0.292;2023-06-22T02:04:12;10.25;;;5.43;;
76208;SDS011;64990;51.698;-0.292;2023-06-22T02:06:40;13.05;;;6.05;;
76208;SDS011;64990;51.698;-0.292;2023-06-22T02:09:12;8.48;;;5.63;;
76208;SDS011;64990;51.698;-0.292;2023-06-22T02:11:40;13.90;;;5.75;;
76208;SDS011;64990;51.698;-0.292;2023-06-22T02:14:06;10.27;;;6.15;;
76208;SDS011;64990;51.698;-0.292;2023-06-22T02:16:32;11.32;;;6.57;;
76208;SDS011;64990;51.698;-0.292;2023-06-22T02:18:59;10.88;;;5.97;;
76208;SDS011;64990;51.698;-0.292;2023-06-22T02:21:28;11.50;;;7.03;;
76208;SDS011;64990;51.698;-0.292;2023-06-22T02:23:54;15.50;;;6.53;;
76208;SDS011;64990;51.698;-0.292;2023-06-22T02:26:20;20.48;;;6.53;;
76208;SDS011;64990;51.698;-0.292;2023-06-22T02:28:46;16.40;;;6.38;;
76208;SDS011;64990;51.698;-0.292;2023-06-22T02:31:12;13.93;;;6.88;;
76208;SDS011;64990;51.698;-0.292;2023-06-22T02:33:38;15.75;;;6.05;;
76208;SDS011;64990;51.698;-0.292;2023-06-22T02:36:04;10.73;;;5.70;;
76208;SDS011;64990;51.698;-0.292;2023-06-22T02:38:34;11.13;;;5.60;;
76208;SDS011;64990;51.698;-0.292;2023-06-22T02:41:01;10.82;;;5.57;;
76208;SDS011;64990;51.698;-0.292;2023-06-22T02:43:27;11.80;;;6.18;;
76208;SDS011;64990;51.698;-0.292;2023-06-22T02:45:53;8.10;;;5.32;;
76208;SDS011;64990;51.698;-0.292;2023-06-22T02:48:19;9.80;;;4.97;;
76208;SDS011;64990;51.698;-0.292;2023-06-22T02:50:45;14.77;;;6.88;;
76208;SDS011;64990;51.698;-0.292;2023-06-22T02:53:11;10.30;;;6.50;;
76208;SDS011;64990;51.698;-0.292;2023-06-22T02:55:37;14.23;;;6.38;;
76208;SDS011;64990;51.698;-0.292;2023-06-22T02:58:04;16.17;;;6.43;;
76208;SDS011;64990;51.698;-0.292;2023-06-22T03:00:31;13.15;;;5.75;;
76208;SDS011;64990;51.698;-0.292;2023-06-22T03:02:57;11.82;;;6.70;;
76208;SDS011;64990;51.698;-0.292;2023-06-22T03:05:23;12.82;;;6.68;;
76208;SDS011;64990;51.698;-0.292;2023-06-22T03:07:49;13.23;;;5.63;;
76208;SDS011;64990;51.698;-0.292;2023-06-22T03:10:16;19.00;;;7.40;;
76208;SDS011;64990;51.698;-0.292;2023-06-22T03:12:42;15.25;;;7.57;;
76208;SDS011;64990;51.698;-0.292;2023-06-22T03:15:09;14.65;;;7.25;;
76208;SDS011;64990;51.698;-0.292;2023-06-22T03:17:35;15.35;;;7.32;;
76208;SDS011;64990;51.698;-0.292;2023-06-22T03:20:03;11.77;;;6.78;;
76208;SDS011;64990;51.698;-0.292;2023-06-22T03:22:34;14.90;;;7.95;;
76208;SDS011;64990;51.698;-0.292;2023-06-22T03:25:00;16.33;;;7.25;;
76208;SDS011;64990;51.698;-0.292;2023-06-22T03:27:26;14.82;;;5.95;;
76208;SDS011;64990;51.698;-0.292;2023-06-22T03:29:52;17.08;;;8.93;;
76208;SDS011;64990;51.698;-0.292;2023-06-22T03:32:18;22.45;;;9.52;;
76208;SDS011;64990;51.698;-0.292;2023-06-22T03:34:44;15.10;;;6.72;;
76208;SDS011;64990;51.698;-0.292;2023-06-22T03:37:14;11.48;;;6.82;;
76208;SDS011;64990;51.698;-0.292;2023-06-22T03:39:41;10.65;;;5.78;;
76208;SDS011;64990;51.698;-0.292;2023-06-22T03:42:07;19.25;;;8.38;;
76208;SDS011;64990;51.698;-0.292;2023-06-22T03:44:33;19.05;;;7.78;;
76208;SDS011;64990;51.698;-0.292;2023-06-22T03:47:01;13.57;;;6.85;;
76208;SDS011;64990;51.698;-0.292;2023-06-22T03:49:27;10.48;;;6.03;;
76208;SDS011;64990;51.698;-0.292;2023-06-22T03:51:53;13.38;;;8.23;;
76208;SDS011;64990;51.698;-0.292;2023-06-22T03:54:19;16.77;;;6.32;;
76208;SDS011;64990;51.698;-0.292;2023-06-22T03:56:45;14.27;;;6.75;;
76208;SDS011;64990;51.698;-0.292;2023-06-22T03:59:11;13.00;;;6.50;;
76208;SDS011;64990;51.698;-0.292;2023-06-22T04:01:37;19.73;;;6.43;;
76208;SDS011;64990;51.698;-0.292;2023-06-22T04:04:03;23.00;;;8.07;;
76208;SDS011;64990;51.698;-0.292;2023-06-22T04:06:29;15.25;;;7.00;;
76208;SDS011;64990;51.698;-0.292;2023-06-22T04:08:55;10.82;;;6.15;;
76208;SDS011;64990;51.698;-0.292;2023-06-22T04:11:21;11.07;;;6.65;;
76208;SDS011;64990;51.698;-0.292;2023-06-22T04:13:47;13.57;;;6.47;;
76208;SDS011;64990;51.698;-0.292;2023-06-22T04:16:14;16.58;;;7.45;;
76208;SDS011;64990;51.698;-0.292;2023-06-22T04:18:40;15.02;;;7.93;;
76208;SDS011;64990;51.698;-0.292;2023-06-22T04:21:06;12.38;;;6.53;;
76208;SDS011;64990;51.698;-0.292;2023-06-22T04:23:32;15.85;;;7.68;;
76208;SDS011;64990;51.698;-0.292;2023-06-22T04:25:59;14.85;;;5.78;;
76208;SDS011;64990;51.698;-0.292;2023-06-22T04:28:25;14.48;;;6.28;;
76208;SDS011;64990;51.698;-0.292;2023-06-22T04:30:51;14.32;;;7.60;;
76208;SDS011;64990;51.698;-0.292;2023-06-22T04:33:17;12.73;;;7.47;;
76208;SDS011;64990;51.698;-0.292;2023-06-22T04:35:46;14.80;;;7.15;;
76208;SDS011;64990;51.698;-0.292;2023-06-22T04:38:12;10.98;;;6.18;;
76208;SDS011;64990;51.698;-0.292;2023-06-22T04:40:39;11.77;;;6.28;;
76208;SDS011;64990;51.698;-0.292;2023-06-22T04:43:05;14.00;;;6.22;;
76208;SDS011;64990;51.698;-0.292;2023-06-22T04:45:31;10.50;;;6.85;;
76208;SDS011;64990;51.698;-0.292;2023-06-22T04:47:58;13.02;;;6.50;;
76208;SDS011;64990;51.698;-0.292;2023-06-22T04:50:24;20.05;;;7.70;;
76208;SDS011;64990;51.698;-0.292;2023-06-22T04:52:50;13.20;;;6.88;;
76208;SDS011;64990;51.698;-0.292;2023-06-22T04:55:16;7.82;;;5.20;;
76208;SDS011;64990;51.698;-0.292;2023-06-22T04:57:48;8.45;;;6.78;;
76208;SDS011;64990;51.698;-0.292;2023-06-22T05:00:15;13.90;;;6.53;;
76208;SDS011;64990;51.698;-0.292;2023-06-22T05:02:43;13.13;;;6.68;;
76208;SDS011;64990;51.698;-0.292;2023-06-22T05:05:10;11.73;;;6.72;;
76208;SDS011;64990;51.698;-0.292;2023-06-22T05:07:38;12.10;;;7.63;;
76208;SDS011;64990;51.698;-0.292;2023-06-22T05:10:08;11.10;;;5.95;;
76208;SDS011;64990;51.698;-0.292;2023-06-22T05:12:35;13.20;;;7.07;;
76208;SDS011;64990;51.698;-0.292;2023-06-22T05:15:01;7.55;;;5.88;;
76208;SDS011;64990;51.698;-0.292;2023-06-22T05:17:27;10.00;;;6.38;;
76208;SDS011;64990;51.698;-0.292;2023-06-22T05:19:53;13.00;;;7.75;;
76208;SDS011;64990;51.698;-0.292;2023-06-22T05:22:20;17.05;;;6.53;;
76208;SDS011;64990;51.698;-0.292;2023-06-22T05:24:46;15.90;;;6.63;;
76208;SDS011;64990;51.698;-0.292;2023-06-22T05:27:12;17.27;;;7.05;;
76208;SDS011;64990;51.698;-0.292;2023-06-22T05:29:39;9.77;;;5.88;;
76208;SDS011;64990;51.698;-0.292;2023-06-22T05:32:05;18.15;;;7.90;;
76208;SDS011;64990;51.698;-0.292;2023-06-22T05:34:31;14.88;;;6.40;;
76208;SDS011;64990;51.698;-0.292;2023-06-22T05:36:57;22.42;;;6.75;;
76208;SDS011;64990;51.698;-0.292;2023-06-22T05:39:24;11.25;;;6.95;;
76208;SDS011;64990;51.698;-0.292;2023-06-22T05:41:50;12.48;;;7.22;;
76208;SDS011;64990;51.698;-0.292;2023-06-22T05:44:17;12.95;;;6.07;;
76208;SDS011;64990;51.698;-0.292;2023-06-22T05:46:44;11.65;;;6.15;;
76208;SDS011;64990;51.698;-0.292;2023-06-22T05:49:11;16.17;;;6.63;;
76208;SDS011;64990;51.698;-0.292;2023-06-22T05:51:37;8.52;;;6.05;;
76208;SDS011;64990;51.698;-0.292;2023-06-22T05:54:03;12.25;;;5.18;;
76208;SDS011;64990;51.698;-0.292;2023-06-22T05:56:29;12.35;;;6.20;;
76208;SDS011;64990;51.698;-0.292;2023-06-22T05:58:56;7.75;;;5.05;;
76208;SDS011;64990;51.698;-0.292;2023-06-22T06:01:22;10.95;;;5.90;;
76208;SDS011;64990;51.698;-0.292;2023-06-22T06:03:48;18.30;;;6.47;;
76208;SDS011;64990;51.698;-0.292;2023-06-22T06:06:14;12.65;;;7.47;;
76208;SDS011;64990;51.698;-0.292;2023-06-22T06:08:40;12.10;;;7.07;;
76208;SDS011;64990;51.698;-0.292;2023-06-22T06:11:07;11.27;;;5.38;;
76208;SDS011;64990;51.698;-0.292;2023-06-22T06:13:32;17.42;;;7.72;;
76208;SDS011;64990;51.698;-0.292;2023-06-22T06:15:58;23.20;;;6.68;;
76208;SDS011;64990;51.698;-0.292;2023-06-22T06:18:27;15.15;;;6.70;;
76208;SDS011;64990;51.698;-0.292;2023-06-22T06:20:53;11.73;;;6.38;;
76208;SDS011;64990;51.698;-0.292;2023-06-22T06:23:19;11.43;;;7.65;;
76208;SDS011;64990;51.698;-0.292;2023-06-22T06:25:45;20.70;;;9.52;;
76208;SDS011;64990;51.698;-0.292;2023-06-22T06:28:11;12.05;;;6.57;;
76208;SDS011;64990;51.698;-0.292;2023-06-22T06:30:37;18.23;;;6.53;;
76208;SDS011;64990;51.698;-0.292;2023-06-22T06:33:03;12.02;;;5.90;;
76208;SDS011;64990;51.698;-0.292;2023-06-22T06:35:33;17.63;;;6.50;;
76208;SDS011;64990;51.698;-0.292;2023-06-22T06:37:59;28.35;;;7.75;;
76208;SDS011;64990;51.698;-0.292;2023-06-22T06:40:25;22.70;;;7.82;;
76208;SDS011;64990;51.698;-0.292;2023-06-22T06:42:52;13.98;;;7.70;;
76208;SDS011;64990;51.698;-0.292;2023-06-22T06:45:19;19.77;;;6.72;;
76208;SDS011;64990;51.698;-0.292;2023-06-22T06:47:50;18.17;;;7.00;;
76208;SDS011;64990;51.698;-0.292;2023-06-22T06:50:17;17.92;;;7.40;;
76208;SDS011;64990;51.698;-0.292;2023-06-22T06:52:43;21.48;;;7.60;;
76208;SDS011;64990;51.698;-0.292;2023-06-22T06:55:10;14.10;;;6.85;;
76208;SDS011;64990;51.698;-0.292;2023-06-22T06:57:40;22.55;;;7.38;;
76208;SDS011;64990;51.698;-0.292;2023-06-22T07:00:12;20.02;;;8.05;;
76208;SDS011;64990;51.698;-0.292;2023-06-22T07:02:39;20.27;;;9.38;;
76208;SDS011;64990;51.698;-0.292;2023-06-22T07:05:06;22.55;;;7.50;;
76208;SDS011;64990;51.698;-0.292;2023-06-22T07:07:32;25.55;;;7.88;;
76208;SDS011;64990;51.698;-0.292;2023-06-22T07:09:58;32.90;;;7.70;;
76208;SDS011;64990;51.698;-0.292;2023-06-22T07:12:24;26.95;;;6.65;;
76208;SDS011;64990;51.698;-0.292;2023-06-22T07:14:51;15.50;;;5.97;;
76208;SDS011;64990;51.698;-0.292;2023-06-22T07:17:17;19.45;;;7.38;;
76208;SDS011;64990;51.698;-0.292;2023-06-22T07:19:43;20.50;;;6.10;;
76208;SDS011;64990;51.698;-0.292;2023-06-22T07:22:09;33.72;;;8.40;;
76208;SDS011;64990;51.698;-0.292;2023-06-22T07:24:35;15.85;;;6.65;;
76208;SDS011;64990;51.698;-0.292;2023-06-22T07:27:02;17.48;;;5.65;;
76208;SDS011;64990;51.698;-0.292;2023-06-22T07:29:29;28.20;;;7.47;;
76208;SDS011;64990;51.698;-0.292;2023-06-22T07:31:55;24.38;;;6.13;;
76208;SDS011;64990;51.698;-0.292;2023-06-22T07:34:21;14.35;;;7.38;;
76208;SDS011;64990;51.698;-0.292;2023-06-22T07:36:48;33.83;;;8.48;;
76208;SDS011;64990;51.698;-0.292;2023-06-22T07:39:14;18.00;;;6.95;;
76208;SDS011;64990;51.698;-0.292;2023-06-22T07:41:40;10.68;;;6.30;;
76208;SDS011;64990;51.698;-0.292;2023-06-22T07:44:06;21.10;;;6.30;;
76208;SDS011;64990;51.698;-0.292;2023-06-22T07:46:33;23.25;;;6.03;;
76208;SDS011;64990;51.698;-0.292;2023-06-22T07:48:59;14.18;;;7.13;;
76208;SDS011;64990;51.698;-0.292;2023-06-22T07:51:26;11.05;;;4.82;;
76208;SDS011;64990;51.698;-0.292;2023-06-22T07:53:52;11.48;;;5.05;;
76208;SDS011;64990;51.698;-0.292;2023-06-22T07:56:18;12.45;;;4.00;;
76208;SDS011;64990;51.698;-0.292;2023-06-22T07:58:45;8.88;;;4.40;;
76208;SDS011;64990;51.698;-0.292;2023-06-22T08:01:11;12.18;;;6.32;;
76208;SDS011;64990;51.698;-0.292;2023-06-22T08:03:37;9.10;;;6.35;;
76208;SDS011;64990;51.698;-0.292;2023-06-22T08:06:04;14.05;;;6.00;;
76208;SDS011;64990;51.698;-0.292;2023-06-22T08:08:31;13.50;;;5.90;;
76208;SDS011;64990;51.698;-0.292;2023-06-22T08:10:57;19.13;;;6.57;;
76208;SDS011;64990;51.698;-0.292;2023-06-22T08:13:23;13.57;;;5.88;;
76208;SDS011;64990;51.698;-0.292;2023-06-22T08:15:49;9.73;;;4.82;;
76208;SDS011;64990;51.698;-0.292;2023-06-22T08:18:15;8.48;;;5.10;;
76208;SDS011;64990;51.698;-0.292;2023-06-22T08:20:42;12.30;;;5.63;;
76208;SDS011;64990;51.698;-0.292;2023-06-22T08:23:08;12.57;;;6.07;;
76208;SDS011;64990;51.698;-0.292;2023-06-22T08:25:34;10.50;;;5.95;;
76208;SDS011;64990;51.698;-0.292;2023-06-22T08:28:01;10.77;;;5.95;;
76208;SDS011;64990;51.698;-0.292;2023-06-22T08:30:27;15.25;;;4.80;;
76208;SDS011;64990;51.698;-0.292;2023-06-22T08:32:53;7.20;;;4.43;;
76208;SDS011;64990;51.698;-0.292;2023-06-22T08:35:21;15.32;;;5.47;;
76208;SDS011;64990;51.698;-0.292;2023-06-22T08:37:47;10.90;;;4.63;;
76208;SDS011;64990;51.698;-0.292;2023-06-22T08:40:17;11.55;;;4.72;;
76208;SDS011;64990;51.698;-0.292;2023-06-22T08:42:45;11.25;;;4.65;;
76208;SDS011;64990;51.698;-0.292;2023-06-22T08:45:11;9.05;;;4.68;;
76208;SDS011;64990;51.698;-0.292;2023-06-22T08:47:37;10.23;;;4.90;;
76208;SDS011;64990;51.698;-0.292;2023-06-22T08:50:04;14.27;;;4.38;;
76208;SDS011;64990;51.698;-0.292;2023-06-22T08:52:30;8.18;;;3.55;;
76208;SDS011;64990;51.698;-0.292;2023-06-22T08:54:56;8.88;;;3.85;;
76208;SDS011;64990;51.698;-0.292;2023-06-22T08:57:25;9.23;;;3.75;;
76208;SDS011;64990;51.698;-0.292;2023-06-22T08:59:52;10.23;;;3.97;;
76208;SDS011;64990;51.698;-0.292;2023-06-22T09:02:18;5.68;;;3.25;;
76208;SDS011;64990;51.698;-0.292;2023-06-22T09:04:45;9.93;;;3.85;;
76208;SDS011;64990;51.698;-0.292;2023-06-22T09:07:11;6.68;;;3.53;;
76208;SDS011;64990;51.698;-0.292;2023-06-22T09:09:37;6.97;;;4.18;;
76208;SDS011;64990;51.698;-0.292;2023-06-22T09:12:04;6.40;;;4.00;;
76208;SDS011;64990;51.698;-0.292;2023-06-22T09:14:30;9.05;;;4.28;;
76208;SDS011;64990;51.698;-0.292;2023-06-22T09:16:56;16.10;;;4.47;;
76208;SDS011;64990;51.698;-0.292;2023-06-22T09:19:22;8.77;;;4.97;;
76208;SDS011;64990;51.698;-0.292;2023-06-22T09:21:48;8.02;;;3.85;;
76208;SDS011;64990;51.698;-0.292;2023-06-22T09:24:14;9.00;;;4.60;;
76208;SDS011;64990;51.698;-0.292;2023-06-22T09:26:40;6.15;;;3.90;;
76208;SDS011;64990;51.698;-0.292;2023-06-22T09:29:06;8.85;;;4.40;;
76208;SDS011;64990;51.698;-0.292;2023-06-22T09:31:32;8.57;;;4.43;;
76208;SDS011;64990;51.698;-0.292;2023-06-22T09:33:58;11.43;;;4.43;;
76208;SDS011;64990;51.698;-0.292;2023-06-22T09:36:24;9.02;;;3.35;;
76208;SDS011;64990;51.698;-0.292;2023-06-22T09:38:50;7.00;;;3.88;;
76208;SDS011;64990;51.698;-0.292;2023-06-22T09:41:21;12.10;;;4.82;;
76208;SDS011;64990;51.698;-0.292;2023-06-22T09:43:47;6.50;;;3.05;;
76208;SDS011;64990;51.698;-0.292;2023-06-22T09:46:14;10.65;;;4.00;;
76208;SDS011;64990;51.698;-0.292;2023-06-22T09:48:40;7.80;;;4.25;;
76208;SDS011;64990;51.698;-0.292;2023-06-22T09:51:06;9.32;;;3.33;;
76208;SDS011;64990;51.698;-0.292;2023-06-22T09:53:32;19.67;;;5.00;;
76208;SDS011;64990;51.698;-0.292;2023-06-22T09:55:59;10.40;;;2.90;;
76208;SDS011;64990;51.698;-0.292;2023-06-22T09:58:26;5.03;;;3.60;;
76208;SDS011;64990;51.698;-0.292;2023-06-22T10:00:52;8.70;;;4.10;;
76208;SDS011;64990;51.698;-0.292;2023-06-22T10:03:19;10.35;;;4.03;;
76208;SDS011;64990;51.698;-0.292;2023-06-22T10:05:45;9.25;;;3.33;;
76208;SDS011;64990;51.698;-0.292;2023-06-22T10:08:11;8.45;;;3.25;;
76208;SDS011;64990;51.698;-0.292;2023-06-22T10:10:37;10.98;;;4.03;;
76208;SDS011;64990;51.698;-0.292;2023-06-22T10:13:09;5.40;;;3.40;;
76208;SDS011;64990;51.698;-0.292;2023-06-22T10:15:36;5.97;;;2.92;;
76208;SDS011;64990;51.698;-0.292;2023-06-22T10:18:02;7.32;;;3.92;;
76208;SDS011;64990;51.698;-0.292;2023-06-22T10:20:29;3.97;;;2.78;;
76208;SDS011;64990;51.698;-0.292;2023-06-22T10:22:55;5.97;;;2.80;;
76208;SDS011;64990;51.698;-0.292;2023-06-22T10:25:21;3.83;;;3.17;;
76208;SDS011;64990;51.698;-0.292;2023-06-22T10:27:47;10.90;;;3.75;;
76208;SDS011;64990;51.698;-0.292;2023-06-22T10:30:13;6.07;;;2.88;;
76208;SDS011;64990;51.698;-0.292;2023-06-22T10:32:40;7.82;;;2.53;;
76208;SDS011;64990;51.698;-0.292;2023-06-22T10:35:07;5.72;;;2.75;;
76208;SDS011;64990;51.698;-0.292;2023-06-22T10:37:33;7.43;;;2.70;;
76208;SDS011;64990;51.698;-0.292;2023-06-22T10:39:59;4.25;;;2.60;;
76208;SDS011;64990;51.698;-0.292;2023-06-22T10:42:25;4.75;;;2.90;;
76208;SDS011;64990;51.698;-0.292;2023-06-22T10:44:51;11.13;;;3.50;;
76208;SDS011;64990;51.698;-0.292;2023-06-22T10:47:17;10.35;;;4.22;;
76208;SDS011;64990;51.698;-0.292;2023-06-22T10:49:43;5.50;;;2.55;;
76208;SDS011;64990;51.698;-0.292;2023-06-22T10:52:09;3.90;;;2.58;;
76208;SDS011;64990;51.698;-0.292;2023-06-22T10:54:35;5.70;;;2.88;;
76208;SDS011;64990;51.698;-0.292;2023-06-22T10:57:02;5.72;;;3.00;;
76208;SDS011;64990;51.698;-0.292;2023-06-22T10:59:28;4.90;;;2.70;;
76208;SDS011;64990;51.698;-0.292;2023-06-22T11:01:58;4.28;;;1.90;;
76208;SDS011;64990;51.698;-0.292;2023-06-22T11:04:24;6.75;;;2.70;;
76208;SDS011;64990;51.698;-0.292;2023-06-22T11:06:50;5.53;;;3.13;;
76208;SDS011;64990;51.698;-0.292;2023-06-22T11:09:16;18.40;;;2.88;;
76208;SDS011;64990;51.698;-0.292;2023-06-22T11:11:46;6.57;;;2.88;;
76208;SDS011;64990;51.698;-0.292;2023-06-22T11:14:13;5.90;;;2.88;;
76208;SDS011;64990;51.698;-0.292;2023-06-22T11:16:39;2.95;;;2.50;;
76208;SDS011;64990;51.698;-0.292;2023-06-22T11:19:05;4.93;;;2.38;;
76208;SDS011;64990;51.698;-0.292;2023-06-22T11:21:31;11.38;;;3.17;;
76208;SDS011;64990;51.698;-0.292;2023-06-22T11:24:00;5.10;;;2.50;;
76208;SDS011;64990;51.698;-0.292;2023-06-22T11:26:26;2.90;;;2.55;;
76208;SDS011;64990;51.698;-0.292;2023-06-22T11:28:52;3.33;;;1.95;;
76208;SDS011;64990;51.698;-0.292;2023-06-22T11:31:19;3.58;;;2.60;;
76208;SDS011;64990;51.698;-0.292;2023-06-22T11:33:45;6.60;;;3.20;;
76208;SDS011;64990;51.698;-0.292;2023-06-22T11:36:12;2.33;;;2.05;;
76208;SDS011;64990;51.698;-0.292;2023-06-22T11:38:38;2.78;;;2.08;;
76208;SDS011;64990;51.698;-0.292;2023-06-22T11:41:07;7.38;;;2.90;;
76208;SDS011;64990;51.698;-0.292;2023-06-22T11:43:33;13.35;;;3.10;;
76208;SDS011;64990;51.698;-0.292;2023-06-22T11:46:01;6.90;;;1.88;;
76208;SDS011;64990;51.698;-0.292;2023-06-22T11:48:27;12.20;;;2.92;;
76208;SDS011;64990;51.698;-0.292;2023-06-22T11:50:53;5.32;;;3.10;;
76208;SDS011;64990;51.698;-0.292;2023-06-22T11:53:20;9.52;;;2.75;;
76208;SDS011;64990;51.698;-0.292;2023-06-22T11:55:46;3.95;;;2.22;;
76208;SDS011;64990;51.698;-0.292;2023-06-22T11:58:12;4.75;;;2.38;;
76208;SDS011;64990;51.698;-0.292;2023-06-22T12:00:38;3.70;;;2.33;;
76208;SDS011;64990;51.698;-0.292;2023-06-22T12:03:05;8.15;;;2.92;;
76208;SDS011;64990;51.698;-0.292;2023-06-22T12:05:31;4.47;;;2.30;;
76208;SDS011;64990;51.698;-0.292;2023-06-22T12:07:57;9.48;;;2.83;;
76208;SDS011;64990;51.698;-0.292;2023-06-22T12:10:23;5.15;;;3.05;;
76208;SDS011;64990;51.698;-0.292;2023-06-22T12:12:49;4.00;;;2.08;;
76208;SDS011;64990;51.698;-0.292;2023-06-22T12:15:15;5.22;;;2.90;;
76208;SDS011;64990;51.698;-0.292;2023-06-22T12:17:41;3.47;;;2.28;;
76208;SDS011;64990;51.698;-0.292;2023-06-22T12:20:08;8.07;;;1.95;;
76208;SDS011;64990;51.698;-0.292;2023-06-22T12:22:34;7.85;;;3.58;;
76208;SDS011;64990;51.698;-0.292;2023-06-22T12:25:02;5.75;;;2.78;;
76208;SDS011;64990;51.698;-0.292;2023-06-22T12:27:28;3.15;;;2.03;;
76208;SDS011;64990;51.698;-0.292;2023-06-22T12:29:55;3.88;;;2.63;;
76208;SDS011;64990;51.698;-0.292;2023-06-22T12:32:21;4.75;;;2.60;;
76208;SDS011;64990;51.698;-0.292;2023-06-22T12:34:47;4.05;;;2.38;;
76208;SDS011;64990;51.698;-0.292;2023-06-22T12:37:13;4.15;;;2.30;;
76208;SDS011;64990;51.698;-0.292;2023-06-22T12:39:42;4.57;;;2.40;;
76208;SDS011;64990;51.698;-0.292;2023-06-22T12:42:09;5.82;;;2.45;;
76208;SDS011;64990;51.698;-0.292;2023-06-22T12:44:38;4.43;;;2.03;;
76208;SDS011;64990;51.698;-0.292;2023-06-22T12:47:05;3.20;;;2.15;;
76208;SDS011;64990;51.698;-0.292;2023-06-22T12:49:31;7.40;;;2.42;;
76208;SDS011;64990;51.698;-0.292;2023-06-22T12:51:57;6.38;;;2.97;;
76208;SDS011;64990;51.698;-0.292;2023-06-22T12:54:23;3.83;;;2.30;;
76208;SDS011;64990;51.698;-0.292;2023-06-22T12:56:52;9.85;;;3.10;;
76208;SDS011;64990;51.698;-0.292;2023-06-22T12:59:18;4.40;;;2.65;;
76208;SDS011;64990;51.698;-0.292;2023-06-22T13:01:44;4.93;;;2.63;;
76208;SDS011;64990;51.698;-0.292;2023-06-22T13:04:11;6.57;;;2.42;;
76208;SDS011;64990;51.698;-0.292;2023-06-22T13:06:39;5.65;;;2.72;;
76208;SDS011;64990;51.698;-0.292;2023-06-22T13:09:05;6.07;;;2.22;;
76208;SDS011;64990;51.698;-0.292;2023-06-22T13:11:31;5.25;;;2.30;;
76208;SDS011;64990;51.698;-0.292;2023-06-22T13:13:57;2.58;;;2.25;;
76208;SDS011;64990;51.698;-0.292;2023-06-22T13:16:23;5.72;;;2.75;;
76208;SDS011;64990;51.698;-0.292;2023-06-22T13:18:49;5.90;;;2.03;;
76208;SDS011;64990;51.698;-0.292;2023-06-22T13:21:15;11.68;;;2.53;;
76208;SDS011;64990;51.698;-0.292;2023-06-22T13:23:41;4.63;;;1.98;;
76208;SDS011;64990;51.698;-0.292;2023-06-22T13:26:07;4.10;;;2.47;;
76208;SDS011;64990;51.698;-0.292;2023-06-22T13:28:33;7.22;;;2.25;;
76208;SDS011;64990;51.698;-0.292;2023-06-22T13:30:59;14.02;;;3.38;;
76208;SDS011;64990;51.698;-0.292;2023-06-22T13:33:25;9.00;;;2.67;;
76208;SDS011;64990;51.698;-0.292;2023-06-22T13:35:51;4.53;;;2.95;;
76208;SDS011;64990;51.698;-0.292;2023-06-22T13:38:17;3.65;;;2.33;;
76208;SDS011;64990;51.698;-0.292;2023-06-22T13:40:43;4.13;;;2.60;;
76208;SDS011;64990;51.698;-0.292;2023-06-22T13:43:09;6.35;;;2.45;;
76208;SDS011;64990;51.698;-0.292;2023-06-22T13:45:35;9.15;;;2.30;;
76208;SDS011;64990;51.698;-0.292;2023-06-22T13:48:01;6.63;;;2.50;;
76208;SDS011;64990;51.698;-0.292;2023-06-22T13:50:28;5.53;;;3.10;;
76208;SDS011;64990;51.698;-0.292;2023-06-22T13:52:54;7.43;;;2.30;;
76208;SDS011;64990;51.698;-0.292;2023-06-22T13:55:21;13.27;;;2.75;;
76208;SDS011;64990;51.698;-0.292;2023-06-22T13:57:48;2.67;;;1.90;;
76208;SDS011;64990;51.698;-0.292;2023-06-22T14:00:15;4.22;;;2.28;;
76208;SDS011;64990;51.698;-0.292;2023-06-22T14:02:41;3.70;;;2.42;;
76208;SDS011;64990;51.698;-0.292;2023-06-22T14:05:07;6.20;;;2.60;;
76208;SDS011;64990;51.698;-0.292;2023-06-22T14:07:34;4.60;;;2.20;;
76208;SDS011;64990;51.698;-0.292;2023-06-22T14:10:00;2.05;;;1.83;;
76208;SDS011;64990;51.698;-0.292;2023-06-22T14:12:26;12.00;;;2.25;;
76208;SDS011;64990;51.698;-0.292;2023-06-22T14:14:52;5.75;;;2.60;;
76208;SDS011;64990;51.698;-0.292;2023-06-22T14:17:18;3.38;;;2.08;;
76208;SDS011;64990;51.698;-0.292;2023-06-22T14:19:49;9.40;;;2.03;;
76208;SDS011;64990;51.698;-0.292;2023-06-22T14:22:17;9.32;;;2.35;;
76208;SDS011;64990;51.698;-0.292;2023-06-22T14:24:43;9.10;;;2.35;;